Have a Safe July 4th! 

Flight Track Log - Related Links

Times and Time Zones

All times are in EDT time to prevent confusion due to time zone crossing. See the ASQ4659 flight status page for this flight to view local times or setup timezone preferences in your user account.

Time Position Orientation Groundspeed Altitude Reporting Facility
EDT Latitude Longitude Course Direction KTS MPH feet Rate Location/Type
Tue 07:51:05 PM 36.2803 -94.4039 246° West 187 215 5,300  Level Memphis Center
Tue 07:52:07 PM 36.2506 -94.4725 242° Southwest 209 241 8,100 2,274 Climbing Memphis Center
Tue 07:53:09 PM 36.2150 -94.5633 244° Southwest 237 273 10,000 1,452 Climbing Memphis Center
Tue 07:55:13 PM 36.0883 -94.7308 227° Southwest 347 399 12,600 1,355 Climbing Memphis Center
Tue 07:56:15 PM 36.0000 -94.7947 210° Southwest 359 413 14,200 1,403 Climbing Memphis Center
Tue 07:57:17 PM 35.9081 -94.8592 210° Southwest 370 426 15,500 1,306 Climbing Memphis Center
Tue 07:58:19 PM 35.8150 -94.9244 210° Southwest 375 432 16,900 1,161 Climbing Memphis Center
Tue 07:59:21 PM 35.7214 -94.9911 210° Southwest 381 438 17,900 1,113 Climbing Memphis Center
Tue 08:00:23 PM 35.6431 -95.0794 223° Southwest 401 461 19,200 1,597 Climbing Memphis Center
Tue 08:01:25 PM 35.5628 -95.1975 230° Southwest 378 435 21,200 1,694 Climbing Memphis Center
Tue 08:02:27 PM 35.4886 -95.2833 223° Southwest 374 430 22,700 1,452 Climbing Memphis Center
Tue 08:03:29 PM 35.3958 -95.3453 209° Southwest 379 436 24,200 1,355 Climbing Memphis Center
Tue 08:04:31 PM 35.3042 -95.4042 208° Southwest 375 432 25,500 1,338 Climbing Memphis Center
Tue 08:05:39 PM 35.1908 -95.4772 208° Southwest 376 433 27,100 1,477 Climbing Fort Worth Center
Tue 08:06:41 PM 35.0992 -95.5361 208° Southwest 376 433 28,700 1,440 Climbing Fort Worth Center
Tue 08:07:44 PM 35.0089 -95.5939 208° Southwest 371 427 30,100 1,248 Climbing Fort Worth Center
Tue 08:08:46 PM 34.9164 -95.6497 206° Southwest 367 422 31,300 823 Climbing Fort Worth Center
Tue 08:09:48 PM 34.8217 -95.7114 208° Southwest 385 443 31,800 339 Climbing Fort Worth Center
Tue 08:10:50 PM 34.6981 -95.7886 207° Southwest 411 473 32,000 97 Climbing Fort Worth Center
Tue 08:11:52 PM 34.5861 -95.8592 207° Southwest 442 509 32,000  Level Fort Worth Center
Tue 08:12:54 PM 34.4717 -95.9325 208° Southwest 456 525 32,000  Level Fort Worth Center
Tue 08:13:56 PM 34.3533 -96.0061 207° Southwest 472 543 32,000  Level Fort Worth Center
Tue 08:14:59 PM 34.2394 -96.0756 207° Southwest 462 532 32,000  Level Fort Worth Center
Tue 08:16:01 PM 34.1242 -96.1481 208° Southwest 464 534 32,000  Level Fort Worth Center
Tue 08:17:03 PM 33.9944 -96.2317 208° Southwest 463 533 32,000  Level Fort Worth Center
Tue 08:18:05 PM 33.8800 -96.3011 207° Southwest 462 532 32,000  Level Fort Worth Center
Tue 08:19:07 PM 33.7650 -96.3719 207° Southwest 463 533 32,000  Level Fort Worth Center
Tue 08:20:09 PM 33.6517 -96.4422 207° Southwest 462 532 32,000  Level Fort Worth Center
Tue 08:21:12 PM 33.5150 -96.5256 207° Southwest 460 529 32,000  Level Fort Worth Center
Tue 08:22:14 PM 33.4011 -96.5950 207° Southwest 458 527 32,000  Level Fort Worth Center
Tue 08:23:16 PM 33.2786 -96.6303 194° South 460 529 32,000  Level Fort Worth Center
Tue 08:24:18 PM 33.1481 -96.6211 177° South 464 534 32,000 -387 Level Fort Worth Center
Tue 08:25:20 PM 33.0194 -96.6119 177° South 464 534 31,200 -484 Descending Fort Worth Center
Tue 08:26:22 PM 32.8906 -96.6042 177° South 460 529 31,000 -97 Descending Fort Worth Center
Tue 08:27:24 PM 32.7608 -96.5969 177° South 461 531 31,000  Level Fort Worth Center
Tue 08:28:26 PM 32.6078 -96.5864 177° South 459 528 31,000  Level Fort Worth Center
Tue 08:29:28 PM 32.4811 -96.5772 177° South 458 527 31,000  Level Fort Worth Center
Tue 08:30:30 PM 32.3539 -96.5694 177° South 457 526 31,000  Level Fort Worth Center
Tue 08:31:32 PM 32.2267 -96.5608 177° South 456 525 31,000  Level Fort Worth Center
Tue 08:32:34 PM 32.0997 -96.5531 177° South 456 525 31,000  Level Fort Worth Center
Tue 08:33:37 PM 31.9725 -96.5458 177° South 455 524 31,000  Level Fort Worth Center
Tue 08:34:39 PM 31.8203 -96.5350 177° South 456 525 31,000  Level Fort Worth Center
Tue 08:35:41 PM 31.6933 -96.5261 177° South 456 525 31,000  Level Fort Worth Center
Tue 08:36:43 PM 31.5756 -96.5181 177° South 456 525 31,000  Level Fort Worth Center
Tue 08:37:45 PM 31.4547 -96.4744 163° South 457 526 31,000  Level Fort Worth Center
Tue 08:38:47 PM 31.3186 -96.3917 153° Southeast 458 527 31,000  Level Fort Worth Center
Tue 08:39:49 PM 31.2053 -96.3211 152° Southeast 458 527 31,000  Level Fort Worth Center
Tue 08:40:51 PM 31.0914 -96.2519 153° Southeast 458 527 31,000 -677 Level Fort Worth Center
Tue 08:41:53 PM 30.9775 -96.1811 152° Southeast 461 531 29,600 -1,790 Descending Fort Worth Center
Tue 08:42:55 PM 30.8583 -96.1061 152° Southeast 478 550 27,300 -2,419 Descending Fort Worth Center
Tue 08:43:57 PM 30.7478 -96.0364 152° Southeast 455 524 24,600 -2,448 Descending Fort Worth Center
Tue 08:45:00 PM 30.6464 -95.9700 151° Southeast 424 488 22,200 -2,352 Descending Fort Worth Center
Tue 08:46:02 PM 30.5242 -95.8933 152° Southeast 420 483 19,700 -2,323 Descending Fort Worth Center
Tue 08:47:04 PM 30.4394 -95.8217 144° Southeast 390 449 17,400 -2,032 Descending Fort Worth Center
Tue 08:48:06 PM 30.3672 -95.7494 139° Southeast 355 409 15,500 -1,500 Descending Fort Worth Center
Tue 08:49:08 PM 30.2972 -95.6814 140° Southeast 335 386 14,300 -1,355 Descending Fort Worth Center
Tue 08:50:10 PM 30.2200 -95.6092 141° Southeast 333 383 12,700 -1,739 Descending Fort Worth Center
Tue 08:51:26 PM 30.1292 -95.5214 140° Southeast 314 361 10,300 -1,597 Descending Houston Center
Tue 08:52:29 PM 30.0939 -95.4492 119° Southeast 302 348 9,000 -1,152 Descending Houston Center
Tue 08:53:31 PM 30.0925 -95.3667 91° East 264 304 7,900 -1,463 Descending Houston Center
Tue 08:54:32 PM 30.0925 -95.2794 90° East 232 267 6,000 -1,756 Descending Houston Center
Tue 08:55:34 PM 30.0906 -95.2083 92° East 225 259 4,300 -968 Descending Houston Center
Tue 08:56:36 PM 30.0775 -95.1389 102° East 224 258 4,000 -581 Descending Houston Center
Tue 08:57:38 PM 30.0183 -95.1317 174° South 236 272 3,100 -871 Descending Houston Center
Tue 08:58:40 PM 29.9922 -95.1975 245° Southwest 197 227 2,200 -677 Descending Houston Center
Tue 08:59:42 PM 29.9942 -95.2453 273° West 194 223 1,700 -780 Descending Houston Center
Tue 09:00:43 PM 29.9931 -95.2958 269° West 174 200 600 -732 Descending Houston Center
Tue 09:01:45 PM 29.9919 -95.3475 269° West 161 185 200 -387 Descending Houston Center

Login

Don't have an account? Register now (free) for customized features, flight alerts, and more!